Time;durP1;ratioP1;P1;durP2;ratioP2;P2;SDS_P1;SDS_P2;PMS_P1;PMS_P2;Temp;Humidity;BMP_temperature;BMP_pressure;BME280_temperature;BME280_humidity;BME280_pressure;Samples;Min_cycle;Max_cycle;Signal;HPM_P1;HPM_P2
2021/06/07 00:02:07;;;;;;;7.50;4.28;;;;;;;13.53;84.63;99179.72;1731127;82;20987;-68
2021/06/07 00:04:33;;;;;;;7.20;4.17;;;;;;;13.55;84.74;99196.08;1742489;82;20979;-68
2021/06/07 00:07:00;;;;;;;7.92;3.98;;;;;;;13.56;84.75;99192.78;1746902;82;21756;-68
2021/06/07 00:09:29;;;;;;;8.20;4.75;;;;;;;13.61;84.51;99189.38;1731049;82;21027;-68
2021/06/07 00:11:59;;;;;;;9.18;4.25;;;;;;;13.62;84.31;99195.11;1655155;85;21579;-67
2021/06/07 00:14:30;;;;;;;8.08;4.12;;;;;;;13.61;84.10;99189.93;1726482;82;21007;-67
2021/06/07 00:16:56;;;;;;;6.50;3.90;;;;;;;13.57;84.05;99184.84;1661460;85;21037;-67
2021/06/07 00:19:27;;;;;;;5.33;3.40;;;;;;;13.55;83.98;99181.58;1728206;82;21031;-68
2021/06/07 00:21:55;;;;;;;8.48;3.65;;;;;;;13.53;83.93;99177.80;1725100;82;20971;-68
2021/06/07 00:24:22;;;;;;;7.65;3.67;;;;;;;13.55;83.89;99182.40;1734994;82;21062;-68
2021/06/07 00:26:49;;;;;;;6.37;3.30;;;;;;;13.54;83.84;99185.42;1677187;85;21562;-68
2021/06/07 00:29:16;;;;;;;5.20;3.17;;;;;;;13.46;84.00;99185.60;1720148;82;21137;-68
2021/06/07 00:31:43;;;;;;;5.00;3.20;;;;;;;13.42;83.96;99181.30;1725135;82;21027;-67
2021/06/07 00:34:09;;;;;;;6.33;3.15;;;;;;;13.43;83.80;99187.55;1720803;82;21063;-68
2021/06/07 00:36:36;;;;;;;;;;;;;;;13.44;83.69;99182.34;1738157;82;21485;-68
2021/06/07 00:39:05;;;;;;;6.35;3.02;;;;;;;13.43;83.66;99185.63;1740974;82;20396;-68
2021/06/07 00:41:32;;;;;;;5.25;3.05;;;;;;;13.36;83.76;99185.22;1747468;82;21018;-67
2021/06/07 00:44:01;;;;;;;4.70;2.52;;;;;;;13.34;83.82;99184.73;1739163;82;21059;-68
2021/06/07 00:48:34;;;;;;;7.70;3.13;;;;;;;13.38;83.84;99180.28;1772602;79;22837;-68
2021/06/07 00:51:05;;;;;;;5.40;3.10;;;;;;;13.27;84.06;99192.52;1702249;83;20987;-68
2021/06/07 00:53:31;;;;;;;5.95;2.80;;;;;;;13.24;84.19;99189.03;1706904;82;21426;-68
2021/06/07 00:56:03;;;;;;;7.37;2.98;;;;;;;13.28;84.03;99193.34;1730984;82;21011;-69
2021/06/07 00:58:36;;;;;;;5.40;2.98;;;;;;;13.29;83.90;99190.83;1709196;83;21034;-68
2021/06/07 01:01:09;;;;;;;5.03;3.37;;;;;;;13.30;83.80;99186.45;1722605;82;20984;-68
2021/06/07 01:03:36;;;;;;;4.95;2.77;;;;;;;13.30;83.73;99189.18;1723996;82;21051;-69
2021/06/07 01:06:04;;;;;;;5.37;3.25;;;;;;;13.31;83.70;99186.70;1727448;83;20991;-69
2021/06/07 01:08:30;;;;;;;4.85;3.20;;;;;;;13.31;83.88;99178.51;1705261;83;20983;-69
2021/06/07 01:10:57;;;;;;;5.78;2.70;;;;;;;13.32;83.78;99184.79;1707361;83;21008;-69
2021/06/07 01:13:23;;;;;;;;;;;;;;;13.33;83.91;99184.47;1722322;83;21487;-69
2021/06/07 01:15:52;;;;;;;3.87;3.02;;;;;;;13.32;83.90;99189.67;1704808;83;20111;-69
2021/06/07 01:18:20;;;;;;;6.40;2.60;;;;;;;13.28;84.15;99186.50;1704061;83;21066;-68
2021/06/07 01:20:54;;;;;;;4.03;2.90;;;;;;;13.31;84.14;99188.08;1701976;83;20975;-68
2021/06/07 01:23:21;;;;;;;4.60;3.00;;;;;;;13.36;84.03;99187.14;1707933;82;21083;-68
2021/06/07 01:25:48;;;;;;;5.20;2.75;;;;;;;13.35;84.08;99190.46;1708515;83;21027;-69
2021/06/07 01:28:17;;;;;;;7.40;2.92;;;;;;;13.34;84.12;99189.38;1700534;83;21031;-69
2021/06/07 01:30:49;;;;;;;5.55;3.10;;;;;;;13.36;84.01;99190.69;1708532;82;21003;-69
2021/06/07 01:33:19;;;;;;;5.33;2.83;;;;;;;13.39;83.92;99185.20;1702009;83;21070;-69
2021/06/07 01:35:46;;;;;;;5.15;3.47;;;;;;;13.41;84.08;99191.97;1706939;83;21019;-69
2021/06/07 01:38:13;;;;;;;4.78;2.70;;;;;;;13.41;84.04;99193.89;1715790;83;21047;-70
2021/06/07 01:40:46;;;;;;;4.25;2.52;;;;;;;13.45;84.07;99199.02;1729074;82;21015;-69
2021/06/07 01:43:13;;;;;;;3.83;2.72;;;;;;;13.49;84.33;99195.11;1708687;82;21075;-69
2021/06/07 01:45:42;;;;;;;3.62;2.77;;;;;;;13.52;84.36;99197.23;1726121;83;20995;-69
2021/06/07 01:48:10;;;;;;;6.65;2.98;;;;;;;13.51;84.61;99203.26;1724959;83;21007;-69
2021/06/07 01:50:37;;;;;;;8.25;3.35;;;;;;;13.50;84.60;99204.36;1729356;83;21050;-69
2021/06/07 01:53:04;;;;;;;;;;;;;;;13.53;84.59;99207.07;1710039;82;21022;-69
2021/06/07 01:55:36;;;;;;;;;;;;;;;13.55;84.54;99208.93;1724014;83;20093;-69
2021/06/07 01:58:05;;;;;;;3.30;2.55;;;;;;;13.55;84.63;99210.30;1701986;82;20136;-69
2021/06/07 02:00:45;;;;;;;5.05;3.30;;;;;;;13.53;84.85;99213.91;1704077;82;21081;-69
2021/06/07 02:03:16;;;;;;;10.60;3.50;;;;;;;13.53;84.79;99211.98;1730195;82;21051;-70
2021/06/07 02:05:46;;;;;;;5.15;2.77;;;;;;;13.56;84.81;99205.91;1712083;82;21478;-69
2021/06/07 02:08:14;;;;;;;4.62;3.02;;;;;;;13.62;84.77;99209.34;1707447;83;21113;-69
2021/06/07 02:10:45;;;;;;;4.35;3.05;;;;;;;13.67;84.73;99203.78;1724701;82;20987;-69
2021/06/07 02:13:13;;;;;;;3.45;2.95;;;;;;;13.73;84.62;99215.67;1701055;83;21003;-69
2021/06/07 02:15:41;;;;;;;4.83;3.27;;;;;;;13.81;84.49;99216.89;1719366;83;21338;-69
2021/06/07 02:18:10;;;;;;;5.87;3.70;;;;;;;13.82;84.19;99222.03;1725495;83;21027;-69
2021/06/07 02:20:37;;;;;;;5.78;3.30;;;;;;;13.76;84.09;99216.98;1703957;82;21411;-69
2021/06/07 02:23:04;;;;;;;4.25;3.30;;;;;;;13.73;83.99;99220.33;1708368;83;20983;-69
2021/06/07 02:25:30;;;;;;;;;;;;;;;13.78;83.81;99227.08;1720726;83;20962;-69
2021/06/07 02:27:57;;;;;;;5.12;3.02;;;;;;;13.84;83.62;99231.31;1730950;82;20098;-69
2021/06/07 02:30:26;;;;;;;5.22;3.17;;;;;;;13.87;83.74;99230.70;1717034;82;21445;-69
2021/06/07 02:32:54;;;;;;;7.70;3.30;;;;;;;13.91;83.55;99231.16;1736513;82;21063;-69
2021/06/07 02:35:21;;;;;;;5.30;2.95;;;;;;;13.95;83.41;99239.02;1728137;82;21007;-69
2021/06/07 02:37:49;;;;;;;5.55;3.25;;;;;;;14.01;83.33;99230.13;1713925;83;21051;-69
2021/06/07 02:40:20;;;;;;;3.67;2.92;;;;;;;14.06;83.24;99237.43;1728143;82;21540;-69
2021/06/07 02:42:47;;;;;;;4.85;3.40;;;;;;;14.06;83.16;99240.98;1731613;81;21114;-69
2021/06/07 02:45:15;;;;;;;11.33;3.17;;;;;;;14.05;83.27;99237.17;1722772;82;21015;-69
2021/06/07 02:47:43;;;;;;;4.95;3.45;;;;;;;14.13;83.24;99239.20;1729068;82;21074;-69
2021/06/07 02:50:11;;;;;;;6.25;3.10;;;;;;;14.18;83.22;99233.03;1706652;82;20987;-69
2021/06/07 02:52:47;;;;;;;5.53;3.37;;;;;;;14.25;83.22;99234.80;1699753;83;21086;-69
2021/06/07 02:55:30;;;;;;;6.30;3.20;;;;;;;14.34;83.14;99237.66;1728831;82;21046;-69
2021/06/07 02:57:57;;;;;;;5.90;3.05;;;;;;;14.32;82.85;99226.16;1716410;83;21157;-69
2021/06/07 03:00:30;;;;;;;5.08;3.35;;;;;;;;;;1725679;82;21015;-70
2021/06/07 03:02:59;;;;;;;5.45;3.60;;;;;;;14.46;82.97;99242.02;1729859;82;21580;-70
2021/06/07 03:05:26;;;;;;;6.10;3.10;;;;;;;14.51;82.75;99239.17;1727991;82;21915;-70
2021/06/07 03:07:52;;;;;;;6.42;3.20;;;;;;;14.57;82.35;99232.45;1725880;83;21015;-70
2021/06/07 03:10:19;;;;;;;5.92;3.02;;;;;;;14.64;82.27;99236.94;1730427;82;21592;-70
2021/06/07 03:12:46;;;;;;;4.58;3.05;;;;;;;14.67;82.08;99230.83;1733978;82;21113;-70
2021/06/07 03:15:14;;;;;;;6.37;3.50;;;;;;;14.68;82.01;99235.20;1725535;82;21058;-69
2021/06/07 03:17:41;;;;;;;4.83;2.95;;;;;;;14.67;81.96;99238.23;1714056;82;21031;-69
2021/06/07 03:20:10;;;;;;;8.13;3.08;;;;;;;14.63;81.72;99240.00;1724314;82;20963;-68
2021/06/07 03:22:36;;;;;;;6.25;3.40;;;;;;;14.59;81.77;99242.55;1710647;82;21054;-68
2021/06/07 03:25:04;;;;;;;6.53;3.40;;;;;;;14.58;81.91;99239.55;1708161;83;21002;-69
2021/06/07 03:27:31;;;;;;;6.42;2.87;;;;;;;14.63;81.97;99242.16;1712469;83;21026;-68
2021/06/07 03:29:57;;;;;;;5.42;3.00;;;;;;;14.70;81.99;99239.80;1714230;83;20979;-68
2021/06/07 03:32:24;;;;;;;5.72;3.22;;;;;;;14.75;81.92;99239.69;1728491;82;21035;-69
2021/06/07 03:34:50;;;;;;;;;;;;;;;14.77;81.72;99238.80;1732359;82;21030;-69
2021/06/07 03:37:17;;;;;;;5.55;2.87;;;;;;;14.75;81.82;99244.35;1726936;82;20428;-69
2021/06/07 03:39:43;;;;;;;6.50;3.20;;;;;;;14.73;82.08;99243.87;1702612;83;21482;-69
2021/06/07 03:42:10;;;;;;;5.47;3.75;;;;;;;14.71;82.26;99241.98;1701434;83;21066;-69
2021/06/07 03:44:37;;;;;;;6.22;3.80;;;;;;;14.70;82.39;99234.91;1713900;83;21070;-69
2021/06/07 03:47:04;;;;;;;6.67;3.60;;;;;;;14.73;82.61;99241.13;1729150;82;21055;-69
2021/06/07 03:49:30;;;;;;;6.00;3.60;;;;;;;14.71;82.75;99251.56;1711447;83;21436;-69
2021/06/07 03:51:56;;;;;;;;;;;;;;;14.72;83.10;99245.80;1719817;83;21000;-69
2021/06/07 03:54:23;;;;;;;7.20;3.30;;;;;;;14.73;83.29;99243.31;1707718;83;20161;-69
2021/06/07 03:56:50;;;;;;;4.87;3.08;;;;;;;14.73;83.36;99251.53;1716742;83;20975;-69
2021/06/07 03:59:17;;;;;;;5.40;3.33;;;;;;;14.74;83.23;99253.13;1688663;83;21583;-70
2021/06/07 04:01:44;;;;;;;8.48;3.80;;;;;;;14.81;82.84;99248.02;1690675;83;21540;-69
2021/06/07 04:04:11;;;;;;;5.83;2.87;;;;;;;14.87;82.62;99256.95;1691229;83;21048;-69
2021/06/07 04:06:37;;;;;;;5.83;3.50;;;;;;;14.89;82.35;99253.32;1713774;83;21090;-69
2021/06/07 04:09:05;;;;;;;6.55;3.10;;;;;;;14.91;82.17;99257.95;1715388;82;21578;-70
2021/06/07 04:11:32;;;;;;;8.33;3.40;;;;;;;14.96;82.17;99255.06;1692818;83;21071;-70
2021/06/07 04:13:58;;;;;;;4.30;3.05;;;;;;;15.03;82.11;99262.84;1694763;83;21522;-70
2021/06/07 04:16:25;;;;;;;4.25;2.95;;;;;;;15.04;82.13;99268.59;1693692;83;21055;-69
2021/06/07 04:18:52;;;;;;;8.45;4.45;;;;;;;15.10;82.32;99272.25;1691071;82;21422;-69
2021/06/07 04:21:18;;;;;;;;;;;;;;;15.17;81.94;99269.06;1691451;83;21051;-69
2021/06/07 04:23:44;;;;;;;6.47;3.98;;;;;;;15.23;81.91;99267.25;1689552;83;20097;-69
2021/06/07 04:26:12;;;;;;;5.17;3.72;;;;;;;15.25;81.71;99267.77;1701784;83;21047;-69
2021/06/07 04:28:39;;;;;;;5.60;3.45;;;;;;;15.38;81.80;99269.61;1697619;83;21087;-69
2021/06/07 04:31:06;;;;;;;4.55;3.45;;;;;;;15.53;81.94;99271.73;1701180;83;21018;-70
2021/06/07 04:33:33;;;;;;;5.20;3.15;;;;;;;15.68;82.00;99268.58;1695998;83;21232;-69
2021/06/07 04:36:00;;;;;;;6.53;3.72;;;;;;;15.79;81.29;99261.13;1711214;83;20964;-70
2021/06/07 04:38:26;;;;;;;;;;;;;;;16.04;81.09;99262.89;1712587;83;21391;-70
2021/06/07 04:40:53;;;;;;;4.80;3.40;;;;;;;16.36;80.03;99266.61;1700323;83;20111;-70
2021/06/07 04:43:19;;;;;;;;;;;;;;;16.66;80.01;99275.30;1693180;83;21043;-70
2021/06/07 04:45:46;;;;;;;7.30;3.25;;;;;;;17.00;79.65;99268.19;1706879;83;20114;-69
2021/06/07 04:48:13;;;;;;;8.15;3.72;;;;;;;17.18;78.02;99269.78;1715508;82;21050;-70
2021/06/07 04:50:40;;;;;;;4.08;3.00;;;;;;;17.24;77.05;99273.41;1697290;82;21071;-69
2021/06/07 04:53:09;;;;;;;4.45;3.17;;;;;;;17.31;75.25;99273.72;1694737;85;21617;-69
2021/06/07 04:55:45;;;;;;;4.83;2.70;;;;;;;17.35;75.38;99278.81;1661466;86;21549;-70
2021/06/07 04:58:26;;;;;;;4.05;2.50;;;;;;;17.36;75.24;99274.09;1696868;83;21542;-69
2021/06/07 05:01:04;;;;;;;4.10;2.72;;;;;;;17.25;73.51;99275.59;1713637;83;20980;-70
2021/06/07 05:03:30;;;;;;;5.15;2.95;;;;;;;17.06;73.65;99274.56;1716719;82;21098;-69
2021/06/07 05:05:58;;;;;;;3.90;2.17;;;;;;;16.97;74.58;99279.24;1721535;83;21011;-67
2021/06/07 05:08:25;;;;;;;6.58;2.50;;;;;;;16.93;74.13;99277.71;1703359;82;21074;-67
2021/06/07 05:10:52;;;;;;;3.95;2.45;;;;;;;16.93;75.00;99275.55;1702813;83;21019;-66
2021/06/07 05:13:18;;;;;;;4.17;2.35;;;;;;;16.93;74.56;99273.59;1708423;82;21016;-68
2021/06/07 05:15:46;;;;;;;4.15;2.40;;;;;;;16.96;75.06;99269.97;1719667;82;21490;-68
2021/06/07 05:18:13;;;;;;;5.78;2.60;;;;;;;17.01;75.29;99273.91;1721269;82;21097;-66
2021/06/07 05:20:40;;;;;;;2.92;2.47;;;;;;;16.98;74.81;99279.49;1716236;82;21083;-68
2021/06/07 05:23:07;;;;;;;3.90;2.58;;;;;;;16.96;75.49;99275.46;1663172;83;21682;-67
2021/06/07 05:25:34;;;;;;;4.92;2.50;;;;;;;16.97;75.36;99271.59;1712391;81;21062;-67
2021/06/07 05:28:03;;;;;;;4.00;2.50;;;;;;;17.02;75.38;99275.53;1721726;82;21087;-67
2021/06/07 05:30:31;;;;;;;3.25;2.10;;;;;;;17.03;74.84;99286.22;1677661;85;21045;-67
2021/06/07 05:32:58;;;;;;;3.95;2.02;;;;;;;17.01;74.34;99277.47;1706297;82;21031;-67
2021/06/07 05:35:25;;;;;;;;;;;;;;;16.93;74.59;99283.21;1659612;86;21525;-68
2021/06/07 05:37:52;;;;;;;5.03;2.50;;;;;;;16.90;75.01;99283.86;1661929;85;20114;-68
2021/06/07 05:40:20;;;;;;;5.85;2.33;;;;;;;16.91;74.90;99273.12;1676090;85;20991;-69
2021/06/07 05:42:47;;;;;;;4.55;2.10;;;;;;;16.95;74.69;99271.09;1657646;86;21582;-68
2021/06/07 05:45:14;;;;;;;3.12;1.92;;;;;;;16.96;75.08;99268.03;1673147;83;21589;-68
2021/06/07 05:47:40;;;;;;;4.12;2.17;;;;;;;17.05;74.88;99273.50;1730375;82;21035;-68
2021/06/07 05:50:10;;;;;;;3.08;1.98;;;;;;;17.02;74.93;99278.28;1698317;82;20953;-68
2021/06/07 05:52:45;;;;;;;3.15;2.30;;;;;;;17.01;75.40;99278.03;1695859;83;21665;-68
2021/06/07 05:55:07;;;;;;;3.12;2.20;;;;;;;17.04;76.03;99278.78;1675519;83;21067;-68
2021/06/07 05:57:33;;;;;;;5.75;2.80;;;;;;;17.08;76.52;99281.09;1672118;83;21069;-68
2021/06/07 06:00:00;;;;;;;5.20;2.60;;;;;;;17.11;76.56;99286.75;1710338;82;21680;-69
2021/06/07 06:02:26;;;;;;;7.70;3.30;;;;;;;17.12;76.36;99276.56;1696799;83;21642;-69
2021/06/07 06:04:52;;;;;;;5.17;2.67;;;;;;;17.17;76.54;99275.84;1706909;83;21054;-69
2021/06/07 06:07:19;;;;;;;;;;;;;;;17.24;75.87;99270.66;1704200;83;21653;-67
2021/06/07 06:09:46;;;;;;;5.75;2.45;;;;;;;17.24;75.84;99269.84;1716276;82;20159;-66
2021/06/07 06:12:12;;;;;;;;;;;;;;;17.19;75.96;99279.63;1688056;83;21026;-67
2021/06/07 06:14:39;;;;;;;5.53;2.72;;;;;;;17.20;75.88;99282.06;1643701;86;20104;-66
2021/06/07 06:17:06;;;;;;;;;;;;;;;17.15;75.95;99282.78;1674965;85;21074;-67
2021/06/07 06:19:32;;;;;;;3.52;2.25;;;;;;;17.17;76.25;99281.91;1653223;86;20136;-67
2021/06/07 06:22:03;;;;;;;4.28;2.33;;;;;;;17.22;76.23;99283.09;1684526;83;20979;-66
2021/06/07 06:24:27;;;;;;;5.97;3.17;;;;;;;17.29;76.22;99276.53;1679481;85;21098;-67
2021/06/07 06:26:54;;;;;;;5.37;2.85;;;;;;;17.35;75.78;99276.05;1713713;83;21011;-67
2021/06/07 06:29:20;;;;;;;6.47;2.58;;;;;;;17.47;75.74;99278.11;1688193;83;21083;-66
2021/06/07 06:31:48;;;;;;;6.33;2.40;;;;;;;17.60;75.43;99275.77;1691828;83;21080;-67
2021/06/07 06:34:14;;;;;;;;;;;;;;;17.70;74.87;99282.86;1722362;82;21118;-67
2021/06/07 06:36:41;;;;;;;5.33;2.65;;;;;;;17.81;74.84;99276.66;1722062;82;20131;-67
2021/06/07 06:39:08;;;;;;;5.35;2.87;;;;;;;17.92;74.83;99277.10;1706794;82;21067;-69
2021/06/07 06:41:35;;;;;;;;;;;;;;;18.08;74.28;99275.39;1716995;83;21018;-69
2021/06/07 06:44:02;;;;;;;4.60;2.47;;;;;;;18.20;73.70;99285.14;1714357;82;20418;-69
2021/06/07 06:46:29;;;;;;;4.95;2.67;;;;;;;18.34;73.11;99286.27;1719675;82;21039;-68
2021/06/07 06:48:55;;;;;;;6.58;2.90;;;;;;;18.47;73.32;99278.31;1714491;82;21065;-69
2021/06/07 06:51:22;;;;;;;4.22;2.67;;;;;;;18.58;71.70;99285.08;1721104;83;20966;-68
2021/06/07 06:53:48;;;;;;;5.03;2.77;;;;;;;18.63;70.91;99281.33;1719989;81;21085;-69
2021/06/07 06:56:15;;;;;;;3.85;2.00;;;;;;;18.76;70.58;99277.48;1658911;86;20998;-68
2021/06/07 06:58:42;;;;;;;5.25;2.52;;;;;;;18.98;69.98;99287.37;1645761;85;21069;-68
2021/06/07 07:01:08;;;;;;;5.75;2.55;;;;;;;19.04;68.48;99286.00;1621307;86;21020;-69
2021/06/07 07:03:35;;;;;;;4.90;2.45;;;;;;;19.03;69.41;99275.54;1726564;81;21588;-69
2021/06/07 07:06:01;;;;;;;5.30;2.95;;;;;;;19.14;69.27;99280.88;1651070;86;21050;-67
2021/06/07 07:08:30;;;;;;;5.70;2.37;;;;;;;19.26;68.96;99282.88;1632397;87;21078;-67
2021/06/07 07:10:58;;;;;;;3.62;2.08;;;;;;;19.32;67.54;99277.37;1654765;86;21532;-67
2021/06/07 07:13:26;;;;;;;3.95;2.40;;;;;;;19.39;67.60;99276.25;1641273;86;21102;-66
2021/06/07 07:15:52;;;;;;;3.62;2.10;;;;;;;19.52;67.52;99272.39;1711686;82;21468;-71
2021/06/07 07:18:18;;;;;;;2.70;2.08;;;;;;;19.66;67.28;99275.64;1721418;82;21057;-68
2021/06/07 07:20:47;;;;;;;4.58;2.20;;;;;;;19.84;66.84;99266.56;1724999;82;21025;-69
2021/06/07 07:23:13;;;;;;;6.67;1.98;;;;;;;19.99;66.28;99267.27;1716094;82;21597;-68
2021/06/07 07:25:41;;;;;;;4.92;2.42;;;;;;;20.04;65.55;99265.67;1714918;82;21070;-68
2021/06/07 07:28:08;;;;;;;4.15;2.20;;;;;;;20.01;65.61;99264.18;1719124;81;21536;-68
2021/06/07 07:30:35;;;;;;;3.83;1.82;;;;;;;20.01;65.46;99264.98;1714513;82;21038;-69
2021/06/07 07:33:02;;;;;;;4.22;2.10;;;;;;;20.08;65.14;99266.60;1714452;82;21583;-68
2021/06/07 07:35:29;;;;;;;5.25;2.02;;;;;;;20.28;65.04;99272.60;1731366;82;21061;-68
2021/06/07 07:37:55;;;;;;;3.55;2.10;;;;;;;20.58;65.17;99264.03;1725175;82;21038;-68
2021/06/07 07:40:23;;;;;;;3.72;2.02;;;;;;;20.95;63.68;99258.61;1724673;82;21070;-67
2021/06/07 07:42:51;;;;;;;2.90;1.72;;;;;;;21.29;61.66;99255.84;1718912;82;21081;-68
2021/06/07 07:45:19;;;;;;;4.22;1.90;;;;;;;21.52;60.53;99264.36;1722650;82;21663;-68
2021/06/07 07:47:46;;;;;;;3.17;1.82;;;;;;;21.62;59.88;99265.21;1722939;82;21046;-68
2021/06/07 07:50:16;;;;;;;3.45;2.15;;;;;;;21.62;58.71;99266.59;1709319;82;21720;-68
2021/06/07 07:52:42;;;;;;;2.80;2.05;;;;;;;21.51;59.52;99266.31;1708788;83;21676;-67
2021/06/07 07:55:10;;;;;;;3.25;2.20;;;;;;;21.42;59.89;99265.69;1689940;83;21432;-68
2021/06/07 07:57:37;;;;;;;3.55;2.37;;;;;;;21.33;60.50;99263.07;1705729;82;21034;-68
2021/06/07 08:00:07;;;;;;;6.90;2.35;;;;;;;21.31;60.90;99261.25;1706157;83;21009;-67
2021/06/07 08:02:35;;;;;;;4.70;2.00;;;;;;;21.37;61.42;99265.94;1687544;84;21123;-68
2021/06/07 08:05:02;;;;;;;4.12;1.92;;;;;;;21.37;61.81;99273.43;1715305;83;21008;-68
2021/06/07 08:07:28;;;;;;;4.20;2.22;;;;;;;21.26;62.54;99271.18;1713744;82;21016;-69
2021/06/07 08:09:55;;;;;;;3.67;1.92;;;;;;;21.23;63.25;99270.51;1702431;83;21903;-68
2021/06/07 08:12:21;;;;;;;5.22;2.00;;;;;;;21.33;62.99;99271.95;1704577;83;21020;-67
2021/06/07 08:14:48;;;;;;;3.67;2.02;;;;;;;21.54;61.31;99277.28;1689024;83;21556;-67
2021/06/07 08:17:16;;;;;;;4.78;2.33;;;;;;;21.68;61.13;99277.66;1687651;85;21075;-67
2021/06/07 08:19:42;;;;;;;4.62;2.27;;;;;;;21.83;60.37;99276.27;1694115;83;21052;-68
2021/06/07 08:22:10;;;;;;;3.47;2.15;;;;;;;22.03;59.39;99271.66;1688009;84;21020;-68
2021/06/07 08:24:38;;;;;;;5.80;2.00;;;;;;;22.13;59.85;99271.69;1705234;83;21066;-68
2021/06/07 08:27:05;;;;;;;5.70;2.25;;;;;;;22.35;58.60;99270.23;1701611;83;21044;-67
2021/06/07 08:29:32;;;;;;;6.87;2.70;;;;;;;22.50;58.23;99270.75;1702406;83;21708;-67
2021/06/07 08:31:59;;;;;;;5.00;2.10;;;;;;;22.74;57.80;99271.33;1704671;81;21031;-68
2021/06/07 08:34:26;;;;;;;4.72;2.27;;;;;;;22.88;55.62;99270.86;1705854;83;21511;-67
2021/06/07 08:36:52;;;;;;;2.92;1.98;;;;;;;22.94;56.74;99269.39;1709771;82;21071;-67
2021/06/07 08:39:19;;;;;;;5.05;2.30;;;;;;;23.16;57.64;99267.27;1702860;82;21641;-66
2021/06/07 08:41:46;;;;;;;7.87;2.95;;;;;;;23.52;56.56;99261.04;1695287;83;21031;-66
2021/06/07 08:44:12;;;;;;;3.67;2.15;;;;;;;23.74;53.14;99263.00;1717913;83;21063;-66
2021/06/07 08:46:39;;;;;;;3.67;1.90;;;;;;;23.74;54.07;99267.17;1710586;83;21007;-67
2021/06/07 08:49:06;;;;;;;2.98;2.05;;;;;;;23.83;54.34;99270.52;1724223;82;21597;-65
2021/06/07 08:51:32;;;;;;;3.10;1.92;;;;;;;23.78;52.22;99267.46;1724254;82;21010;-67
2021/06/07 08:53:58;;;;;;;3.92;2.20;;;;;;;23.65;53.37;99266.63;1686071;85;21562;-67
2021/06/07 08:56:25;;;;;;;3.55;2.00;;;;;;;23.54;52.93;99268.41;1689072;83;21005;-65
2021/06/07 08:58:51;;;;;;;3.52;2.37;;;;;;;23.58;53.82;99266.50;1684071;83;21490;-67
2021/06/07 09:01:18;;;;;;;10.60;2.15;;;;;;;23.58;53.47;99261.75;1634015;86;20967;-65
2021/06/07 09:03:44;;;;;;;7.90;2.17;;;;;;;23.64;52.37;99260.27;1700927;83;21046;-67
2021/06/07 09:06:10;;;;;;;4.10;2.37;;;;;;;23.82;52.05;99265.33;1689433;83;21027;-66
2021/06/07 09:08:38;;;;;;;4.12;2.20;;;;;;;23.90;51.63;99270.64;1702502;82;21589;-67
2021/06/07 09:11:14;;;;;;;3.58;2.10;;;;;;;23.64;50.72;99260.27;1699642;83;21509;-66
2021/06/07 09:13:41;;;;;;;3.45;1.90;;;;;;;23.64;50.72;99260.27;1687115;84;21597;-66
2021/06/07 09:16:09;;;;;;;6.60;2.55;;;;;;;23.60;49.83;99266.92;1686697;85;21130;-67
2021/06/07 09:18:44;;;;;;;5.30;2.22;;;;;;;23.36;48.01;99268.04;1723080;82;21120;-65
2021/06/07 09:21:18;;;;;;;4.75;2.40;;;;;;;23.18;49.85;99266.31;1725771;82;21038;-66
2021/06/07 09:23:55;;;;;;;3.12;1.98;;;;;;;23.15;50.52;99254.55;1717916;82;21054;-67
2021/06/07 09:26:38;;;;;;;4.22;2.30;;;;;;;23.09;50.79;99257.99;1716690;82;20980;-65
2021/06/07 09:29:15;;;;;;;3.83;2.42;;;;;;;23.09;50.89;99253.25;1710337;82;21035;-65
2021/06/07 09:31:44;;;;;;;5.42;2.20;;;;;;;23.16;51.76;99253.39;1712761;82;21031;-66
2021/06/07 09:34:12;;;;;;;3.95;2.37;;;;;;;23.18;51.03;99252.42;1704654;82;21115;-67
2021/06/07 09:36:40;;;;;;;4.92;2.52;;;;;;;23.18;51.26;99248.84;1699053;83;21022;-68
2021/06/07 09:39:24;;;;;;;4.58;2.60;;;;;;;23.18;51.97;99246.87;1715729;82;21149;-67
2021/06/07 09:42:01;;;;;;;3.95;2.02;;;;;;;23.24;50.94;99243.20;1713722;82;21018;-66
2021/06/07 09:44:52;;;;;;;5.62;2.58;;;;;;;23.37;50.17;99235.52;1711900;82;21212;-67
2021/06/07 09:47:24;;;;;;;5.37;3.15;;;;;;;23.43;49.03;99232.68;1680372;83;21254;-66
2021/06/07 09:50:06;;;;;;;8.38;2.85;;;;;;;23.46;50.15;99236.10;1682974;83;21628;-67
2021/06/07 09:52:48;;;;;;;4.20;2.85;;;;;;;23.47;50.58;99224.64;1686466;83;21018;-67
2021/06/07 09:55:27;;;;;;;5.25;2.55;;;;;;;23.48;49.40;99229.61;1670897;84;21022;-65
2021/06/07 09:58:01;;;;;;;5.47;2.58;;;;;;;23.37;51.82;99224.41;1693143;83;21030;-66
2021/06/07 10:00:47;;;;;;;4.92;2.45;;;;;;;23.22;52.21;99221.95;1687470;83;21607;-66
2021/06/07 10:03:25;;;;;;;4.35;2.27;;;;;;;23.18;51.49;99226.63;1688561;83;21629;-67
2021/06/07 10:06:01;;;;;;;7.58;3.10;;;;;;;23.26;51.60;99217.27;1694891;84;21030;-66
2021/06/07 10:08:45;;;;;;;5.75;2.67;;;;;;;23.43;50.77;99204.32;1695289;83;21121;-66
2021/06/07 10:11:36;;;;;;;4.22;2.58;;;;;;;23.55;49.95;99208.32;1684596;84;21496;-67
2021/06/07 10:14:15;;;;;;;4.55;3.05;;;;;;;23.70;50.37;99208.76;1679433;83;21143;-67
2021/06/07 10:17:01;;;;;;;5.80;2.87;;;;;;;23.79;49.85;99205.73;1692241;83;21488;-66
2021/06/07 10:19:47;;;;;;;4.17;2.75;;;;;;;23.91;49.94;99198.59;1694638;84;21050;-67
2021/06/07 10:22:08;;;;;;;4.42;2.90;;;;;;;24.03;47.88;99188.64;1694470;84;21023;-66
2021/06/07 10:24:34;;;;;;;4.95;2.45;;;;;;;24.02;48.52;99195.98;1695408;83;21018;-67
2021/06/07 10:27:02;;;;;;;4.72;2.95;;;;;;;24.02;48.67;99195.37;1684731;83;21130;-68
2021/06/07 10:29:37;;;;;;;5.45;2.85;;;;;;;23.95;48.06;99192.48;1687760;85;21573;-68
2021/06/07 10:32:13;;;;;;;4.83;2.65;;;;;;;23.79;49.19;99200.98;1681355;84;21563;-67
2021/06/07 10:34:52;;;;;;;4.85;2.70;;;;;;;23.80;50.08;99193.45;1675751;85;21558;-66
2021/06/07 10:37:19;;;;;;;3.85;2.60;;;;;;;23.83;49.49;99189.92;1672189;84;21084;-66
2021/06/07 10:39:46;;;;;;;3.92;2.37;;;;;;;23.77;50.03;99188.64;1674546;84;21078;-68
2021/06/07 10:42:17;;;;;;;5.22;2.33;;;;;;;23.89;49.77;99181.47;1685110;84;21503;-67
2021/06/07 10:44:53;;;;;;;5.17;2.52;;;;;;;24.17;49.30;99175.56;1674586;85;21053;-66
2021/06/07 10:47:24;;;;;;;5.12;2.37;;;;;;;24.45;49.60;99169.00;1684481;83;21051;-68
2021/06/07 10:50:07;;;;;;;4.17;2.33;;;;;;;24.67;46.06;99174.25;1683995;85;21063;-68
2021/06/07 10:53:01;;;;;;;3.65;2.25;;;;;;;24.82;47.26;99166.29;1682835;85;21139;-67
2021/06/07 10:55:37;;;;;;;4.90;1.95;;;;;;;24.94;47.08;99159.08;1685233;84;21664;-66
2021/06/07 10:58:12;;;;;;;5.25;1.80;;;;;;;25.00;44.80;99156.77;1679778;84;21059;-67
2021/06/07 11:00:49;;;;;;;3.85;1.80;;;;;;;24.99;43.12;99167.11;1680262;84;21026;-69
2021/06/07 11:03:19;;;;;;;3.40;2.12;;;;;;;24.98;43.68;99159.92;1679200;84;21047;-68
2021/06/07 11:05:53;;;;;;;2.60;1.55;;;;;;;25.05;44.11;99156.41;1676704;84;21070;-67
2021/06/07 11:08:26;;;;;;;4.22;1.80;;;;;;;25.17;42.47;99159.74;1648923;85;21071;-67
2021/06/07 11:11:14;;;;;;;3.72;1.72;;;;;;;25.25;43.03;99164.21;1662353;84;21051;-66
2021/06/07 11:13:54;;;;;;;3.80;1.85;;;;;;;25.25;43.03;99164.21;1667496;85;21024;-67
2021/06/07 11:16:39;;;;;;;3.83;1.70;;;;;;;25.18;43.96;99153.00;1653742;85;21070;-67
2021/06/07 11:19:09;;;;;;;2.70;1.60;;;;;;;25.18;43.96;99153.00;1656658;84;21422;-68
2021/06/07 11:21:43;;;;;;;6.17;2.05;;;;;;;25.29;42.76;99153.10;1682240;84;21071;-69
2021/06/07 11:24:37;;;;;;;6.78;1.67;;;;;;;25.25;41.78;99138.34;1670002;85;21588;-68
2021/06/07 11:27:06;;;;;;;5.85;1.70;;;;;;;25.25;41.78;99138.34;1662686;84;20984;-68
2021/06/07 11:29:33;;;;;;;2.80;1.72;;;;;;;25.16;42.23;99136.44;1679193;84;21020;-66
2021/06/07 11:32:10;;;;;;;2.72;1.70;;;;;;;25.13;43.37;99143.59;1662420;85;21481;-68
2021/06/07 11:34:48;;;;;;;2.67;1.40;;;;;;;25.16;43.16;99131.67;1655308;85;21091;-68
2021/06/07 11:37:35;;;;;;;4.05;1.50;;;;;;;25.20;42.69;99131.13;1680755;84;21039;-68
2021/06/07 11:40:06;;;;;;;3.35;1.42;;;;;;;25.08;41.79;99132.78;1666967;84;21580;-69
2021/06/07 11:42:32;;;;;;;2.40;1.30;;;;;;;24.93;42.02;99131.05;1682512;84;21047;-70
2021/06/07 11:45:03;;;;;;;2.00;1.50;;;;;;;24.83;43.67;99129.52;1681656;84;21636;-69
2021/06/07 11:47:44;;;;;;;4.12;1.50;;;;;;;24.83;43.67;99129.52;1683339;84;21083;-67
2021/06/07 11:50:17;;;;;;;3.40;1.25;;;;;;;24.91;43.62;99129.23;1678954;84;21072;-68